Time;durP1;ratioP1;P1;durP2;ratioP2;P2;SDS_P1;SDS_P2;PMS_P1;PMS_P2;Temp;Humidity;BMP_temperature;BMP_pressure;BME280_temperature;BME280_humidity;BME280_pressure;Samples;Min_cycle;Max_cycle;Signal;HPM_P1;HPM_P2
2022/05/22 00:01:56;;;;;;;6.10;2.97;;;13.80;99.90;14.20;96850.00;;;;5028711;28;20217;-85
2022/05/22 00:04:45;;;;;;;3.57;3.27;;;13.50;99.90;14.20;96853.00;;;;5029931;28;20205;-84
2022/05/22 00:07:35;;;;;;;3.13;2.83;;;13.60;99.90;14.40;96837.00;;;;5029066;28;20602;-86
2022/05/22 00:10:24;;;;;;;5.07;2.83;;;13.60;99.90;14.90;96843.00;;;;5045467;28;20258;-85
2022/05/22 00:13:13;;;;;;;3.73;2.93;;;13.70;99.90;15.10;96840.00;;;;5031763;28;20210;-84
2022/05/22 00:19:11;;;;;;;3.70;2.70;;;13.80;99.90;14.30;96840.00;;;;5030905;28;20672;-84
2022/05/22 00:22:01;;;;;;;5.03;3.37;;;13.60;99.90;14.30;96827.00;;;;5031031;28;20224;-84
2022/05/22 00:24:52;;;;;;;3.23;2.80;;;13.60;99.90;14.60;96827.00;;;;5035777;28;20198;-85
2022/05/22 00:27:42;;;;;;;4.43;2.90;;;;;14.40;96826.00;;;;5026083;28;20201;-83
2022/05/22 00:30:31;;;;;;;4.40;3.07;;;13.10;99.90;14.40;96824.00;;;;5034321;28;20208;-84
2022/05/22 00:33:20;;;;;;;7.00;2.93;;;13.40;99.90;14.30;96818.00;;;;5026978;28;20216;-84
2022/05/22 00:36:08;;;;;;;4.57;3.50;;;13.30;99.90;14.40;96822.00;;;;5035577;28;20201;-84
2022/05/22 00:38:57;;;;;;;3.50;3.17;;;13.50;99.90;13.90;96825.00;;;;5037189;28;20565;-85
2022/05/22 00:41:52;;;;;;;2.40;2.27;;;13.10;99.90;14.20;96836.00;;;;5035336;28;20244;-85
2022/05/22 00:44:41;;;;;;;4.87;2.97;;;13.30;99.90;13.90;96825.00;;;;5032184;28;20200;-85
2022/05/22 00:47:30;;;;;;;4.63;2.97;;;13.10;99.90;13.90;96820.00;;;;5034521;28;20224;-84
2022/05/22 00:50:19;;;;;;;2.80;2.60;;;13.00;99.90;14.00;96818.00;;;;5044201;28;20299;-85
2022/05/22 00:53:08;;;;;;;2.60;2.40;;;13.10;99.90;14.40;96836.00;;;;5031808;28;20217;-84
2022/05/22 00:55:57;;;;;;;3.90;2.57;;;13.00;99.90;14.50;96834.00;;;;5033350;28;20206;-85
2022/05/22 00:58:52;;;;;;;3.50;2.53;;;13.20;99.90;14.80;96828.00;;;;5035693;28;20585;-85
2022/05/22 01:01:41;;;;;;;3.37;2.47;;;13.20;99.90;14.70;96829.00;;;;5034696;28;20627;-85
2022/05/22 01:04:34;;;;;;;5.37;2.97;;;13.30;99.90;14.60;96840.00;;;;5035142;28;20205;-84
2022/05/22 01:07:23;;;;;;;3.37;2.67;;;13.50;99.90;14.60;96838.00;;;;5031753;28;20205;-84
2022/05/22 01:10:12;;;;;;;2.80;2.60;;;13.50;99.90;14.70;96835.00;;;;5034216;28;20208;-83
2022/05/22 01:13:02;;;;;;;2.90;2.63;;;13.50;99.90;14.60;96829.00;;;;5043016;28;20712;-84
2022/05/22 01:15:52;;;;;;;4.43;2.10;;;13.40;99.90;14.50;96839.00;;;;5052835;22;20232;-68
2022/05/22 01:18:43;;;;;;;2.77;2.40;;;13.60;99.90;14.60;96832.00;;;;5052152;28;20196;-68
2022/05/22 01:21:33;;;;;;;4.40;2.20;;;13.40;99.90;14.50;96835.00;;;;5042009;28;20235;-68
2022/05/22 01:24:23;;;;;;;2.53;2.20;;;13.30;99.90;14.60;96820.00;;;;5053080;28;20211;-67
2022/05/22 01:27:17;;;;;;;3.83;2.77;;;13.30;99.90;14.60;96829.00;;;;5051916;28;20201;-68
2022/05/22 01:30:12;;;;;;;4.40;2.40;;;13.40;99.90;14.60;96819.00;;;;5053646;28;20205;-68
2022/05/22 01:33:00;;;;;;;2.30;2.10;;;13.40;99.90;14.50;96823.00;;;;5052198;28;20220;-67
2022/05/22 01:35:49;;;;;;;2.33;2.07;;;13.50;99.90;14.40;96816.00;;;;5054534;28;20188;-67
2022/05/22 01:38:39;;;;;;;2.73;2.37;;;13.40;99.90;14.40;96825.00;;;;5052914;28;20204;-67
2022/05/22 01:41:29;;;;;;;3.47;3.17;;;13.20;99.90;14.10;96825.00;;;;5058191;28;20232;-67
2022/05/22 01:44:18;;;;;;;2.70;2.50;;;13.00;99.90;13.80;96824.00;;;;5044169;28;20569;-68
2022/05/22 01:47:07;;;;;;;4.30;2.80;;;13.10;99.90;13.80;96823.00;;;;5050718;28;20664;-67
2022/05/22 01:49:56;;;;;;;2.03;1.90;;;12.90;99.90;14.00;96819.00;;;;5052380;28;20204;-68
2022/05/22 01:52:45;;;;;;;2.70;2.17;;;12.30;99.90;14.20;96833.00;;;;5054394;28;20672;-67
2022/05/22 01:55:34;;;;;;;5.50;2.23;;;13.00;99.90;14.20;96816.00;;;;5050358;28;20193;-67
2022/05/22 01:58:24;;;;;;;3.00;2.70;;;13.00;99.90;13.20;96815.00;;;;5052694;28;20204;-67
2022/05/22 02:01:12;;;;;;;10.00;2.40;;;13.00;99.90;13.00;96814.00;;;;5062795;28;20243;-67
2022/05/22 02:04:01;;;;;;;2.53;2.27;;;12.60;99.90;13.50;96815.00;;;;5052292;28;20672;-67
2022/05/22 02:09:56;;;;;;;3.97;2.73;;;12.60;99.90;13.50;96816.00;;;;5051982;28;20204;-67
2022/05/22 02:12:45;;;;;;;2.77;2.57;;;12.50;99.90;13.30;96811.00;;;;5048162;28;20219;-67
2022/05/22 02:15:35;;;;;;;3.23;2.23;;;12.60;99.90;13.60;96811.00;;;;5069729;28;20200;-68
2022/05/22 02:18:24;;;;;;;2.20;2.00;;;12.60;99.90;13.80;96824.00;;;;5049616;28;20201;-67
2022/05/22 02:21:13;;;;;;;2.13;1.93;;;12.50;99.90;13.80;96823.00;;;;5054405;28;20632;-66
2022/05/22 02:24:02;;;;;;;4.17;2.20;;;12.60;99.90;13.90;96815.00;;;;5052178;28;20211;-67
2022/05/22 02:26:50;;;;;;;2.97;2.70;;;12.70;99.90;13.90;96808.00;;;;5048177;28;20314;-67
2022/05/22 02:29:39;;;;;;;2.43;2.13;;;12.50;99.90;13.60;96813.00;;;;5052930;28;20590;-67
2022/05/22 02:32:29;;;;;;;3.27;2.33;;;12.60;99.90;13.60;96829.00;;;;5043783;28;20225;-67
2022/05/22 02:35:19;;;;;;;3.80;2.90;;;12.60;99.90;13.40;96820.00;;;;5042410;28;20208;-67
2022/05/22 02:38:08;;;;;;;2.90;2.40;;;12.60;99.90;12.80;96824.00;;;;5050379;28;20219;-67
2022/05/22 02:40:56;;;;;;;4.63;2.13;;;12.50;99.90;12.80;96826.00;;;;5052418;28;20299;-68
2022/05/22 02:43:45;;;;;;;5.57;2.83;;;12.10;99.90;13.00;96823.00;;;;5052176;28;20205;-67
2022/05/22 02:46:37;;;;;;;2.20;2.00;;;12.20;99.90;13.20;96817.00;;;;5050364;28;20695;-67
2022/05/22 02:49:27;;;;;;;5.90;2.93;;;12.00;99.90;13.50;96818.00;;;;5053181;28;20575;-67
2022/05/22 02:52:16;;;;;;;4.00;2.67;;;12.00;99.90;13.50;96818.00;;;;5056566;28;20589;-67
2022/05/22 02:55:08;;;;;;;4.37;2.20;;;12.30;99.90;13.40;96819.00;;;;5045382;28;20201;-67
2022/05/22 02:57:56;;;;;;;4.40;2.70;;;12.00;99.90;12.90;96810.00;;;;5041802;28;20208;-67
2022/05/22 03:00:45;;;;;;;3.30;3.10;;;12.20;99.90;12.50;96812.00;;;;5050077;28;20229;-68
2022/05/22 03:03:35;;;;;;;5.50;2.53;;;12.10;99.90;12.80;96823.00;;;;5055525;28;20200;-67
2022/05/22 03:06:40;;;;;;;3.03;2.60;;;12.10;99.90;12.70;96822.00;;;;5051896;28;20200;-68
2022/05/22 03:09:28;;;;;;;3.47;2.80;;;11.80;99.90;12.90;96827.00;;;;5052193;28;20581;-67
2022/05/22 03:12:20;;;;;;;3.03;2.73;;;11.90;99.90;13.00;96827.00;;;;5058079;28;20722;-67
2022/05/22 03:15:11;;;;;;;3.93;2.40;;;12.00;99.90;12.80;96822.00;;;;5054122;28;20672;-67
2022/05/22 03:18:01;;;;;;;3.60;2.57;;;12.20;99.90;12.70;96814.00;;;;5064677;28;20208;-67
2022/05/22 03:20:49;;;;;;;2.60;2.30;;;11.80;99.90;12.60;96824.00;;;;5049042;28;20228;-68
2022/05/22 03:23:40;;;;;;;3.07;2.33;;;11.80;99.90;12.20;96819.00;;;;5050068;28;20576;-67
2022/05/22 03:26:28;;;;;;;4.87;2.70;;;11.70;99.90;11.60;96824.00;;;;5045951;28;20374;-67
2022/05/22 03:29:17;;;;;;;2.40;2.27;;;11.50;99.90;12.10;96839.00;;;;5050803;28;20213;-66
2022/05/22 03:32:08;;;;;;;7.60;3.37;;;11.40;99.90;12.20;96841.00;;;;5051026;28;20221;-68
2022/05/22 03:34:57;;;;;;;2.90;2.30;;;11.10;99.90;12.00;96836.00;;;;5060987;28;20200;-68
2022/05/22 03:37:46;;;;;;;2.77;2.30;;;11.40;99.90;12.00;96849.00;;;;5051293;28;20208;-67
2022/05/22 03:40:41;;;;;;;2.53;2.33;;;11.10;99.90;12.10;96849.00;;;;5051237;28;20612;-67
2022/05/22 03:43:30;;;;;;;4.03;3.13;;;11.40;99.90;12.00;96846.00;;;;5046729;28;20192;-67
2022/05/22 03:46:18;;;;;;;2.73;2.37;;;11.30;99.90;11.60;96859.00;;;;5050192;28;20198;-67
2022/05/22 03:49:07;;;;;;;2.33;2.07;;;11.20;99.90;11.50;96861.00;;;;5045335;28;20200;-66
2022/05/22 03:51:56;;;;;;;2.60;2.40;;;11.10;99.90;11.50;96861.00;;;;5053622;28;20228;-66
2022/05/22 03:54:44;;;;;;;3.10;2.73;;;10.90;99.90;11.90;96866.00;;;;5060574;28;20215;-67
2022/05/22 03:57:35;;;;;;;3.03;2.33;;;10.80;99.90;11.80;96867.00;;;;5058885;28;20589;-67
2022/05/22 04:00:25;;;;;;;3.83;3.20;;;11.10;99.90;12.20;96865.00;;;;5056065;28;20205;-67
2022/05/22 04:03:14;;;;;;;2.63;2.23;;;11.10;99.90;12.30;96876.00;;;;5062205;28;20224;-67
2022/05/22 04:06:03;;;;;;;3.20;2.30;;;11.30;99.90;12.70;96868.00;;;;5065297;28;20584;-67
2022/05/22 04:08:52;;;;;;;4.87;2.40;;;11.40;99.90;12.70;96864.00;;;;5052421;28;20235;-66
2022/05/22 04:11:42;;;;;;;4.53;2.83;;;11.50;99.90;12.40;96872.00;;;;5052176;28;20220;-67
2022/05/22 04:14:32;;;;;;;5.33;2.33;;;11.60;99.90;12.50;96871.00;;;;5060522;28;20243;-67
2022/05/22 04:17:21;;;;;;;4.37;2.37;;;11.50;99.90;12.80;96877.00;;;;5052021;28;20219;-67
2022/05/22 04:20:11;;;;;;;3.57;2.60;;;11.70;99.90;13.10;96878.00;;;;5044831;28;20216;-68
2022/05/22 04:26:08;;;;;;;5.07;3.10;;;11.80;99.90;12.70;96874.00;;;;5052095;28;20220;-66
2022/05/22 04:28:57;;;;;;;3.67;2.90;;;11.60;99.90;12.90;96886.00;;;;5056010;28;20211;-66
2022/05/22 04:31:47;;;;;;;4.53;3.17;;;12.00;99.90;13.10;96879.00;;;;5052344;28;20225;-67
2022/05/22 04:34:36;;;;;;;2.47;1.90;;;12.00;99.90;13.60;96883.00;;;;5051265;28;20196;-67
2022/05/22 04:37:24;;;;;;;3.10;2.80;;;12.00;99.90;13.90;96886.00;;;;5051352;28;20219;-68
2022/05/22 04:40:14;;;;;;;4.70;2.87;;;12.30;99.90;13.80;96883.00;;;;5051919;28;20208;-67
2022/05/22 04:43:04;;;;;;;4.53;2.90;;;12.40;99.90;13.70;96891.00;;;;5052135;28;20254;-66
2022/05/22 04:45:54;;;;;;;3.47;2.77;;;12.50;99.90;13.70;96887.00;;;;5052104;28;20208;-67
2022/05/22 04:48:44;;;;;;;6.33;3.97;;;12.40;99.90;13.70;96888.00;;;;5053140;28;20676;-67
2022/05/22 04:51:32;;;;;;;3.40;2.60;;;12.60;99.90;13.80;96891.00;;;;5040634;28;20224;-66
2022/05/22 04:54:21;;;;;;;3.37;2.67;;;12.60;99.90;13.80;96890.00;;;;5051730;28;20603;-67
2022/05/22 04:57:10;;;;;;;9.73;2.97;;;12.70;99.90;13.90;96878.00;;;;5051497;28;20208;-67
2022/05/22 04:59:59;;;;;;;3.93;3.10;;;12.80;99.90;13.70;96888.00;;;;5062521;28;20196;-67
2022/05/22 05:02:48;;;;;;;6.67;3.20;;;12.80;99.90;13.40;96885.00;;;;5038180;28;20240;-66
2022/05/22 05:05:38;;;;;;;5.00;3.00;;;12.70;99.90;13.20;96882.00;;;;5051293;28;20201;-67
2022/05/22 05:08:29;;;;;;;5.17;3.23;;;12.60;99.90;13.50;96876.00;;;;5051258;28;20204;-67
2022/05/22 05:11:18;;;;;;;3.47;3.17;;;12.70;99.90;13.70;96888.00;;;;5042408;28;20221;-68
2022/05/22 05:14:07;;;;;;;4.57;3.43;;;12.70;99.90;13.80;96883.00;;;;5041004;28;20211;-67
2022/05/22 05:16:55;;;;;;;3.33;3.03;;;12.80;99.90;14.20;96880.00;;;;5051741;28;20208;-68
2022/05/22 05:19:45;;;;;;;2.83;2.63;;;12.80;99.90;14.60;96880.00;;;;5048648;28;20576;-67
2022/05/22 05:22:35;;;;;;;3.87;2.73;;;13.00;99.90;14.80;96886.00;;;;5054824;28;20228;-68
2022/05/22 05:25:24;;;;;;;4.70;3.20;;;13.40;99.90;15.00;96878.00;;;;5051390;28;20212;-67
2022/05/22 05:28:13;;;;;;;5.53;3.17;;;13.50;99.90;15.20;96888.00;;;;5049328;28;20208;-67
2022/05/22 05:31:03;;;;;;;4.73;2.97;;;13.70;99.90;15.50;96892.00;;;;5051072;28;20228;-68
2022/05/22 05:33:52;;;;;;;3.07;2.50;;;13.90;99.90;16.00;96896.00;;;;5053568;28;20200;-67
2022/05/22 05:36:42;;;;;;;3.33;2.67;;;14.10;99.90;16.20;96889.00;;;;5039222;28;20204;-67
2022/05/22 05:39:32;;;;;;;4.47;2.80;;;14.30;99.90;16.60;96893.00;;;;5053428;28;20200;-67
2022/05/22 05:42:21;;;;;;;5.27;3.07;;;14.60;99.90;17.10;96892.00;;;;5051266;28;20248;-67
2022/05/22 05:45:13;;;;;;;2.80;2.23;;;15.00;99.90;17.20;96887.00;;;;5050652;28;20199;-67
2022/05/22 05:48:02;;;;;;;3.07;2.77;;;15.20;99.90;17.30;96887.00;;;;5038294;28;20223;-67
2022/05/22 05:50:51;;;;;;;3.23;3.03;;;15.50;99.90;17.50;96891.00;;;;5051341;28;20729;-66
2022/05/22 05:53:40;;;;;;;8.33;2.67;;;15.70;99.90;17.70;96891.00;;;;5050274;28;20209;-67
2022/05/22 05:56:30;;;;;;;5.03;2.77;;;15.90;99.90;17.70;96887.00;;;;5050870;28;20803;-67
2022/05/22 05:59:19;;;;;;;4.30;2.70;;;16.10;99.90;17.80;96894.00;;;;5056072;28;20204;-68
2022/05/22 06:02:11;;;;;;;2.77;2.23;;;16.20;99.90;18.10;96894.00;;;;5051675;28;20224;-67
2022/05/22 06:05:00;;;;;;;3.57;3.27;;;16.30;99.90;18.00;96891.00;;;;5045532;28;20200;-67
2022/05/22 06:07:50;;;;;;;7.23;3.50;;;16.40;99.90;17.90;96902.00;;;;5050292;28;20197;-67
2022/05/22 06:10:39;;;;;;;5.10;3.60;;;16.50;99.90;17.70;96892.00;;;;5045769;28;20228;-67
2022/05/22 06:13:29;;;;;;;3.20;2.90;;;16.60;99.90;17.90;96902.00;;;;5047678;28;20204;-67
2022/05/22 06:16:18;;;;;;;4.57;2.57;;;16.60;99.90;17.90;96902.00;;;;5048125;28;20209;-67
2022/05/22 06:19:06;;;;;;;4.40;4.00;;;16.60;99.90;17.60;96892.00;;;;5044078;28;20200;-67
2022/05/22 06:21:55;;;;;;;3.53;3.20;;;16.50;99.90;17.80;96891.00;;;;5049850;28;20220;-67
2022/05/22 06:24:44;;;;;;;4.03;2.93;;;16.60;99.90;17.60;96901.00;;;;5042302;28;20209;-67
2022/05/22 06:27:33;;;;;;;3.57;3.27;;;16.50;99.90;17.30;96888.00;;;;5040453;28;20221;-67
2022/05/22 06:30:24;;;;;;;5.90;4.30;;;16.60;99.90;17.50;96883.00;;;;5051190;28;20584;-67
2022/05/22 06:33:16;;;;;;;4.50;3.70;;;16.60;99.90;17.60;96876.00;;;;5046912;28;20215;-67
2022/05/22 06:36:09;;;;;;;4.87;3.70;;;16.60;99.90;17.60;96881.00;;;;5048184;28;20207;-67
2022/05/22 06:42:05;;;;;;;6.57;3.30;;;16.70;99.90;17.90;96876.00;;;;5046608;28;20242;-66
2022/05/22 06:44:58;;;;;;;4.53;3.43;;;16.90;99.90;18.20;96861.00;;;;5045784;28;20216;-65
2022/05/22 06:47:49;;;;;;;4.70;3.67;;;17.00;99.90;18.60;96865.00;;;;5041284;28;20676;-66
2022/05/22 06:50:37;;;;;;;3.43;2.77;;;17.30;99.90;18.20;96862.00;;;;5051150;28;20291;-68
2022/05/22 06:53:26;;;;;;;4.50;3.60;;;17.40;99.90;18.40;96859.00;;;;5048364;28;20204;-65
2022/05/22 06:56:15;;;;;;;2.97;2.77;;;17.40;99.90;18.60;96862.00;;;;5045763;28;20208;-66
2022/05/22 06:59:04;;;;;;;2.90;2.70;;;17.60;99.90;18.30;96853.00;;;;5049199;28;20212;-67
2022/05/22 07:01:53;;;;;;;3.83;2.87;;;17.60;99.90;18.10;96859.00;;;;5049664;28;20592;-67
2022/05/22 07:04:43;;;;;;;4.03;3.10;;;17.60;99.90;18.50;96868.00;;;;5049576;28;20224;-64
2022/05/22 07:07:32;;;;;;;3.53;3.20;;;17.60;99.90;18.20;96866.00;;;;5048926;28;20207;-65
2022/05/22 07:11:38;;;;;;;6.03;3.57;;;17.60;99.90;18.30;96867.00;;;;5040307;28;20578;-67
2022/05/22 07:13:30;;;;;;;3.80;3.20;;;17.50;99.90;17.70;96868.00;;;;5046449;28;20582;-67
2022/05/22 07:16:19;;;;;;;4.50;3.17;;;17.50;99.90;18.10;96863.00;;;;5043772;28;20222;-65
2022/05/22 07:19:14;;;;;;;4.67;2.87;;;17.40;99.90;18.10;96854.00;;;;5046302;28;20203;-65
2022/05/22 07:22:05;;;;;;;3.87;3.17;;;17.50;99.90;18.00;96852.00;;;;5044889;28;20228;-66
2022/05/22 07:24:54;;;;;;;4.73;2.80;;;17.50;99.90;18.00;96870.00;;;;5045796;28;20789;-66
2022/05/22 07:27:43;;;;;;;3.13;2.83;;;17.50;99.90;18.30;96861.00;;;;5047056;28;20200;-67
2022/05/22 07:30:33;;;;;;;3.53;2.57;;;17.50;99.90;18.30;96867.00;;;;5045723;28;20196;-65
2022/05/22 07:33:22;;;;;;;3.60;2.63;;;17.40;99.90;18.80;96863.00;;;;5048132;28;20204;-66
2022/05/22 07:36:11;;;;;;;3.13;2.83;;;17.80;99.90;19.40;96856.00;;;;5045753;28;20205;-65
2022/05/22 07:39:01;;;;;;;3.20;2.43;;;17.70;99.90;19.80;96850.00;;;;5043236;28;20197;-66
2022/05/22 07:41:50;;;;;;;7.27;2.70;;;17.90;99.90;19.30;96849.00;;;;5047974;28;20688;-65
2022/05/22 07:44:40;;;;;;;3.53;3.03;;;18.10;99.90;20.30;96833.00;;;;5046637;28;20221;-66
2022/05/22 07:47:29;;;;;;;1.97;1.87;;;18.40;99.90;20.90;96830.00;;;;5047730;28;20581;-66
2022/05/22 07:50:18;;;;;;;3.93;2.13;;;18.70;99.90;21.00;96824.00;;;;5046712;28;20219;-66
2022/05/22 07:53:06;;;;;;;2.83;2.27;;;19.00;99.90;21.40;96824.00;;;;5046586;28;20200;-66
2022/05/22 07:55:57;;;;;;;3.10;2.10;;;19.50;99.90;21.50;96820.00;;;;5045327;28;20192;-66
2022/05/22 07:58:46;;;;;;;2.57;2.37;;;19.70;99.90;19.50;96818.00;;;;5043767;28;20204;-67
2022/05/22 08:01:35;;;;;;;2.07;1.70;;;19.40;99.90;19.90;96805.00;;;;5046215;28;20228;-67
2022/05/22 08:04:24;;;;;;;3.47;1.40;;;19.20;99.90;19.50;96806.00;;;;5046784;28;20252;-65
2022/05/22 08:07:13;;;;;;;3.80;1.80;;;18.90;99.80;19.70;96808.00;;;;5047564;28;20204;-66
2022/05/22 08:10:01;;;;;;;1.97;1.70;;;18.90;98.20;20.80;96823.00;;;;5048983;28;20209;-66
2022/05/22 08:12:52;;;;;;;3.63;1.90;;;19.10;99.70;20.10;96805.00;;;;5047790;28;20211;-67
2022/05/22 08:15:43;;;;;;;2.10;1.90;;;19.20;97.20;20.50;96808.00;;;;4992826;28;1175134;-66
2022/05/22 08:18:32;;;;;;;3.40;1.53;;;19.20;98.30;21.50;96812.00;;;;5039133;28;20212;-67
2022/05/22 08:21:20;;;;;;;1.80;1.43;;;19.50;99.90;19.90;96805.00;;;;5044487;28;20682;-67
2022/05/22 08:24:09;;;;;;;1.57;1.47;;;19.50;96.80;19.30;96771.00;;;;5039944;28;20224;-67
2022/05/22 08:26:58;;;;;;;2.30;1.63;;;19.30;96.50;20.10;96783.00;;;;5039356;28;20208;-67
2022/05/22 08:29:48;;;;;;;2.10;1.57;;;19.10;97.00;19.90;96773.00;;;;5043467;28;20202;-66
2022/05/22 08:32:41;;;;;;;2.43;1.93;;;19.20;96.70;20.00;96778.00;;;;5042632;28;20200;-67
2022/05/22 08:35:34;;;;;;;2.03;1.93;;;19.10;97.00;19.70;96768.00;;;;5039993;28;20659;-66
2022/05/22 08:38:23;;;;;;;4.83;1.83;;;19.20;97.10;19.60;96771.00;;;;5042400;28;20209;-66
2022/05/22 08:41:20;;;;;;;4.13;2.13;;;19.20;96.20;19.80;96765.00;;;;5041151;28;20689;-67
2022/05/22 08:44:14;;;;;;;2.57;1.97;;;19.10;96.20;21.10;96760.00;;;;5043129;28;20227;-67
2022/05/22 08:47:16;;;;;;;3.50;1.70;;;19.30;97.80;20.80;96766.00;;;;5034994;28;20561;-68
2022/05/22 08:50:10;;;;;;;2.63;1.47;;;19.50;96.70;20.00;96764.00;;;;5040149;28;20201;-67
2022/05/22 08:53:03;;;;;;;5.17;1.97;;;19.50;94.70;20.90;96762.00;;;;5037992;28;20193;-67
2022/05/22 08:59:07;;;;;;;2.97;1.83;;;20.30;96.60;21.40;96760.00;;;;5046130;28;20208;-67
2022/05/22 09:02:10;;;;;;;2.33;1.80;;;20.20;95.60;21.20;96767.00;;;;5035448;28;20224;-68
2022/05/22 09:05:05;;;;;;;1.67;1.53;;;20.20;94.60;21.70;96766.00;;;;5036963;28;20235;-66
2022/05/22 09:08:01;;;;;;;1.97;1.77;;;20.30;94.30;22.00;96759.00;;;;5032494;28;20209;-66
2022/05/22 09:11:02;;;;;;;3.33;2.63;;;20.60;95.60;22.20;96757.00;;;;5031302;28;20236;-67
2022/05/22 09:13:59;;;;;;;3.50;2.03;;;20.70;93.00;23.30;96761.00;;;;5037199;28;20207;-67
2022/05/22 09:16:57;;;;;;;4.27;2.07;;;21.00;94.40;24.00;96748.00;;;;5037892;28;20212;-66
2022/05/22 09:19:54;;;;;;;4.93;1.83;;;21.50;93.60;24.20;96749.00;;;;5036032;28;20206;-66
2022/05/22 09:23:08;;;;;;;2.67;1.90;;;21.90;92.40;23.40;96743.00;;;;5031113;28;20205;-67
2022/05/22 09:26:07;;;;;;;4.07;2.10;;;22.20;91.40;22.50;96734.00;;;;5039911;28;20204;-66
2022/05/22 09:29:02;;;;;;;4.97;2.33;;;21.80;89.90;24.20;96747.00;;;;5039698;28;20196;-66
2022/05/22 09:32:00;;;;;;;3.33;2.17;;;22.00;91.00;24.60;96740.00;;;;5031205;28;20247;-67
2022/05/22 09:35:08;;;;;;;5.73;2.30;;;22.40;90.40;25.10;96742.00;;;;5032937;28;20245;-67
2022/05/22 09:38:11;;;;;;;3.23;2.93;;;22.70;90.20;25.30;96734.00;;;;5033849;28;20209;-66
2022/05/22 09:41:16;;;;;;;4.73;2.57;;;23.00;88.10;25.60;96731.00;;;;5034633;28;20224;-66
2022/05/22 09:44:40;;;;;;;7.80;2.83;;;23.40;86.20;25.50;96718.00;;;;5041674;28;20715;-67
2022/05/22 09:48:12;;;;;;;4.47;2.37;;;23.70;84.40;25.20;96714.00;;;;5033949;28;20209;-67
2022/05/22 09:51:18;;;;;;;2.47;2.27;;;23.90;83.60;23.20;96711.00;;;;5029938;28;20329;-68
2022/05/22 09:54:24;;;;;;;4.67;2.37;;;22.30;79.50;23.60;96706.00;;;;5031454;28;20614;-67
2022/05/22 09:57:34;;;;;;;3.00;2.70;;;22.70;82.70;25.10;96710.00;;;;5038359;28;20622;-66
2022/05/22 10:00:31;;;;;;;6.70;2.40;;;22.90;84.20;25.30;96710.00;;;;5030841;28;20205;-66
2022/05/22 10:03:30;;;;;;;6.17;2.73;;;23.30;82.70;26.00;96700.00;;;;5035327;28;20217;-67
2022/05/22 10:06:33;;;;;;;5.23;2.77;;;23.60;84.30;26.20;96696.00;;;;5034364;28;20213;-67
2022/05/22 10:09:35;;;;;;;3.93;2.20;;;24.00;81.60;26.60;96682.00;;;;5040261;28;20707;-66
2022/05/22 10:12:38;;;;;;;2.30;2.10;;;24.20;79.90;26.90;96692.00;;;;5037289;28;20224;-66
2022/05/22 10:15:45;;;;;;;3.80;2.27;;;24.60;81.10;26.50;96691.00;;;;5034300;28;20219;-67
2022/05/22 10:18:51;;;;;;;3.37;2.30;;;24.70;77.80;25.50;96679.00;;;;5036504;28;20231;-67
2022/05/22 10:21:49;;;;;;;3.40;2.50;;;24.80;74.90;25.90;96670.00;;;;5039555;28;20235;-66
2022/05/22 10:24:58;;;;;;;4.13;2.70;;;24.60;74.90;26.00;96668.00;;;;5034910;28;20225;-66
2022/05/22 10:27:57;;;;;;;7.17;2.60;;;24.60;72.40;26.40;96661.00;;;;5034455;28;20205;-66
2022/05/22 10:30:53;;;;;;;4.47;3.10;;;24.60;75.00;27.10;96658.00;;;;5043512;28;20225;-66
2022/05/22 10:33:53;;;;;;;3.67;1.83;;;24.70;75.90;26.80;96661.00;;;;5032158;28;20201;-66
2022/05/22 10:36:51;;;;;;;3.17;2.73;;;24.90;74.70;27.10;96643.00;;;;5032297;28;20591;-66
2022/05/22 10:39:40;;;;;;;6.23;3.47;;;25.20;74.10;26.60;96647.00;;;;5040017;28;20696;-66
2022/05/22 10:42:47;;;;;;;3.60;2.47;;;25.30;70.80;26.50;96653.00;;;;5062700;22;20240;-68
2022/05/22 10:45:39;;;;;;;5.27;2.43;;;25.10;72.50;27.60;96635.00;;;;5044362;28;20228;-67
2022/05/22 10:48:28;;;;;;;3.10;2.70;;;25.30;73.70;26.60;96630.00;;;;5046319;28;20200;-67
2022/05/22 10:51:25;;;;;;;4.13;2.83;;;25.40;69.10;25.80;96625.00;;;;5046537;28;20196;-67
2022/05/22 10:54:25;;;;;;;4.93;2.40;;;25.20;68.80;27.60;96627.00;;;;5033535;28;20213;-67
2022/05/22 10:57:18;;;;;;;3.17;2.13;;;25.40;71.40;28.00;96616.00;;;;5030666;28;20709;-68
2022/05/22 11:00:17;;;;;;;2.87;2.40;;;25.60;71.40;28.60;96608.00;;;;5035791;28;20672;-68
2022/05/22 11:03:14;;;;;;;6.10;2.60;;;26.00;72.50;25.80;96597.00;;;;5033438;28;20595;-68
2022/05/22 11:06:17;;;;;;;5.23;2.17;;;26.00;68.00;27.50;96594.00;;;;5032727;28;20228;-68
2022/05/22 11:09:08;;;;;;;4.40;2.10;;;25.90;69.00;28.70;96591.00;;;;5036064;28;20213;-68
2022/05/22 11:12:08;;;;;;;4.77;2.27;;;26.20;70.50;28.60;96621.00;;;;5033756;28;20236;-68
2022/05/22 11:15:07;;;;;;;3.40;2.30;;;26.50;66.70;28.50;96587.00;;;;5031362;28;20214;-68
2022/05/22 11:18:08;;;;;;;3.50;2.43;;;26.60;68.50;29.60;96585.00;;;;5029600;28;20215;-68
2022/05/22 11:21:10;;;;;;;2.80;2.50;;;26.90;69.40;29.70;96571.00;;;;5042912;28;20197;-68
2022/05/22 11:24:15;;;;;;;4.43;2.90;;;27.30;66.30;29.60;96568.00;;;;5040685;28;20197;-68
2022/05/22 11:27:21;;;;;;;5.03;4.27;;;27.00;64.90;29.20;96559.00;;;;5029364;28;20208;-68
2022/05/22 11:30:19;;;;;;;4.23;2.73;;;27.70;63.90;29.70;96548.00;;;;5033457;28;20204;-67
2022/05/22 11:33:37;;;;;;;6.47;2.70;;;27.70;65.20;29.80;96545.00;;;;5039389;28;20699;-68
2022/05/22 11:36:46;;;;;;;6.33;3.67;;;27.70;63.50;30.70;96541.00;;;;5042739;28;20213;-68
2022/05/22 11:39:54;;;;;;;4.90;2.37;;;27.90;64.90;31.10;96533.00;;;;5038860;28;20202;-67
2022/05/22 11:42:44;;;;;;;3.07;2.70;;;28.30;64.00;31.00;96523.00;;;;5035876;28;20227;-67
2022/05/22 11:45:41;;;;;;;4.93;2.97;;;28.60;62.00;30.00;96526.00;;;;5035701;28;20246;-68
2022/05/22 11:49:03;;;;;;;4.07;2.47;;;28.40;62.10;30.90;96517.00;;;;5034369;28;20208;-67
2022/05/22 11:52:11;;;;;;;3.63;2.67;;;28.50;60.70;30.40;96517.00;;;;5039608;28;20243;-67
2022/05/22 11:55:07;;;;;;;3.00;2.70;;;28.50;60.10;31.20;96513.00;;;;5035082;28;20200;-67
2022/05/22 11:58:19;;;;;;;3.87;2.63;;;28.70;60.80;30.80;96500.00;;;;5037087;28;20205;-67
2022/05/22 12:01:17;;;;;;;6.10;3.03;;;28.80;60.10;31.20;96506.00;;;;5034251;28;20721;-67
2022/05/22 12:04:41;;;;;;;3.85;2.83;;;28.90;60.20;31.70;96484.00;;;;5035140;28;20216;-69
2022/05/22 12:08:23;;;;;;;5.65;2.83;;;29.20;59.60;32.00;96497.00;;;;5031078;28;20749;-66
2022/05/22 12:11:18;;;;;;;5.85;2.38;;;29.30;65.70;31.90;96477.00;;;;5042283;28;20206;-67
2022/05/22 12:14:21;;;;;;;2.88;2.13;;;29.40;67.50;31.60;96479.00;;;;5041450;28;20199;-67
2022/05/22 12:17:18;;;;;;;3.40;3.08;;;29.50;65.70;32.70;96470.00;;;;5035988;28;20204;-68
2022/05/22 12:20:18;;;;;;;4.72;3.40;;;29.40;67.60;32.10;96457.00;;;;5045143;28;20218;-68
2022/05/22 12:23:22;;;;;;;2.85;2.55;;;30.00;61.60;29.80;96456.00;;;;5042856;28;20742;-69
2022/05/22 12:26:14;;;;;;;2.58;2.25;;;29.60;59.50;30.20;96449.00;;;;5036256;28;20227;-67
2022/05/22 12:29:08;;;;;;;4.25;2.70;;;29.30;61.90;30.40;96448.00;;;;5038816;28;20704;-67
2022/05/22 12:32:00;;;;;;;3.92;2.20;;;29.00;60.30;32.30;96447.00;;;;5041717;28;20229;-68
2022/05/22 12:34:53;;;;;;;3.53;2.33;;;29.30;62.40;32.80;96430.00;;;;5038576;28;20210;-68
2022/05/22 12:37:45;;;;;;;2.70;2.42;;;29.60;61.60;31.70;96444.00;;;;5036990;28;20716;-68
2022/05/22 12:40:48;;;;;;;2.72;2.47;;;29.80;59.10;28.70;96427.00;;;;5050085;28;20207;-67
2022/05/22 12:43:37;;;;;;;3.03;2.50;;;28.90;58.70;31.20;96421.00;;;;5047537;28;20207;-67
2022/05/22 12:46:28;;;;;;;3.90;2.60;;;28.90;60.50;30.10;96418.00;;;;5046884;28;20233;-67
2022/05/22 12:49:26;;;;;;;6.45;2.40;;;29.00;63.50;30.40;96425.00;;;;5047316;28;20202;-67
2022/05/22 12:52:29;;;;;;;3.03;2.08;;;28.70;60.30;32.40;96421.00;;;;5048933;28;20221;-67
2022/05/22 12:55:29;;;;;;;3.28;2.33;;;29.10;60.90;31.60;96412.00;;;;5048496;28;20965;-67
2022/05/22 12:58:38;;;;;;;3.15;2.17;;;29.50;60.50;32.40;96410.00;;;;5049278;28;20368;-67
2022/05/22 13:01:40;;;;;;;3.38;2.45;;;29.70;60.00;32.50;96414.00;;;;5050685;28;20608;-67
2022/05/22 13:04:36;;;;;;;4.75;2.25;;;30.10;57.90;31.90;96406.00;;;;5050698;28;20207;-67
2022/05/22 13:07:33;;;;;;;4.13;2.58;;;30.40;59.40;33.00;96407.00;;;;5049055;28;20457;-67